Main page
METAR-TAF:

METAR-TAF

Airports :

Trelew, Argentina

latitude: 43-12S, longitude: 065-16W, elevation: 39 m

METAR: missing

Time: 08:20 (11:20 UTC)

Forecast

The report was made 6 hours and 20 minutes ago, at 05:00 UTC
Forecast valid from 01 at 06 UTC to 02 at 06 UTC
Wind 5 kt from the West
Visibility 10 km or more
no clouds below 1500 m and no cumulonimbus
Becoming
from 01 at 16 UTC to 01 at 18 UTC
Wind 10 kt from the North/Northeast
Becoming
from 01 at 23 UTC to 02 at 01 UTC
Wind 20 kt from the North with gusts up to 30 kt
Broken clouds at a height of 2500 ft
Scattered clouds at a height of 4000 ft

TAF: SAVT 010500Z 0106/0206 27005KT CAVOK TX15/0119Z TN04/0110Z BECMG 0116/0118 02010KT BECMG 0123/0201 36020G30KT BKN025 SCT040

Weather observations and forecasts of more than 4000 airports (METAR and TAF reports).

The available stations are represented by yellow and red dots on the map.

Hover mouse over dot to see the name of the station.

Then click to see weather observations and forecasts.

To change the map : click on the green buttons with a black cross to zoom in, on the green button with a dash to zoom out, or on the green arrows for adjacent maps.


METAR-TAF: